createdAt,value
2023-04-26T00:00:37.931Z,76.20
2023-04-26T00:03:08.156Z,77.50
2023-04-26T00:05:38.209Z,78.70
2023-04-26T00:08:06.838Z,79.70
2023-04-26T00:10:35.269Z,80.70
2023-04-26T00:13:03.840Z,81.40
2023-04-26T00:15:32.606Z,82.20
2023-04-26T00:18:02.354Z,82.50
2023-04-26T00:20:31.022Z,83.00
2023-04-26T00:22:59.494Z,83.40
2023-04-26T00:25:28.051Z,83.90
2023-04-26T00:27:56.956Z,84.40
2023-04-26T00:30:25.304Z,84.70
2023-04-26T00:32:53.637Z,85.10
2023-04-26T00:35:23.914Z,85.60
2023-04-26T00:37:52.695Z,85.90
2023-04-26T00:40:21.202Z,86.10
2023-04-26T00:42:49.595Z,86.50
2023-04-26T00:45:17.961Z,87.10
2023-04-26T00:47:46.355Z,87.60
2023-04-26T00:50:14.887Z,87.80
2023-04-26T00:52:45.753Z,88.00
2023-04-26T00:55:14.611Z,88.20
2023-04-26T00:57:43.084Z,88.20
2023-04-26T01:00:13.086Z,88.20
2023-04-26T01:02:42.552Z,88.10
2023-04-26T01:05:11.448Z,88.00
2023-04-26T01:07:40.052Z,87.80
2023-04-26T01:10:10.556Z,87.80
2023-04-26T01:12:40.220Z,87.80
2023-04-26T01:15:09.722Z,87.80
2023-04-26T01:17:38.921Z,87.60
2023-04-26T01:20:09.971Z,87.40
2023-04-26T01:22:39.640Z,87.20
2023-04-26T01:25:09.013Z,86.80
2023-04-26T01:27:37.674Z,86.50
2023-04-26T01:30:06.855Z,86.00
2023-04-26T01:32:35.785Z,85.60
2023-04-26T01:35:05.741Z,85.10
2023-04-26T01:37:34.226Z,84.70
2023-04-26T01:40:06.437Z,84.00
2023-04-26T01:42:34.902Z,83.40
2023-04-26T01:45:03.977Z,82.90
2023-04-26T01:47:52.371Z,82.20
2023-04-26T01:50:21.065Z,81.50
2023-04-26T01:52:49.484Z,81.00
2023-04-26T01:55:19.299Z,80.50
2023-04-26T01:57:47.694Z,80.20
2023-04-26T02:00:16.614Z,79.90
2023-04-26T02:02:45.129Z,79.60
2023-04-26T02:05:13.794Z,79.50
2023-04-26T02:07:42.202Z,79.50
2023-04-26T02:10:11.057Z,79.30
2023-04-26T02:12:41.157Z,79.30
2023-04-26T02:15:10.455Z,79.10
2023-04-26T02:17:39.934Z,78.90
2023-04-26T02:20:10.512Z,78.70
2023-04-26T02:22:39.123Z,78.30
2023-04-26T02:25:08.882Z,78.00
2023-04-26T02:27:37.241Z,77.80
2023-04-26T02:30:08.208Z,77.80
2023-04-26T02:32:36.731Z,77.60
2023-04-26T02:35:06.869Z,77.60
2023-04-26T02:37:35.581Z,77.50
2023-04-26T02:40:05.536Z,77.50
2023-04-26T02:42:33.983Z,77.30
2023-04-26T02:45:02.486Z,77.10
2023-04-26T02:47:32.500Z,77.00
2023-04-26T02:50:01.021Z,76.90
2023-04-26T02:52:30.698Z,76.70
2023-04-26T02:54:59.249Z,76.50
2023-04-26T02:57:27.988Z,76.60
2023-04-26T02:59:56.624Z,76.50
2023-04-26T03:02:26.009Z,76.60
2023-04-26T03:04:57.493Z,76.60
2023-04-26T03:07:25.984Z,76.70
2023-04-26T03:09:54.605Z,76.60
2023-04-26T03:12:23.126Z,76.60
2023-04-26T03:14:51.542Z,76.70
2023-04-26T03:17:20.160Z,76.80
2023-04-26T03:19:49.058Z,76.90
2023-04-26T03:22:18.825Z,76.80
2023-04-26T03:24:47.699Z,77.00
2023-04-26T03:27:16.191Z,77.00
2023-04-26T03:29:45.751Z,77.40
2023-04-26T03:32:14.309Z,77.60
2023-04-26T03:34:42.957Z,78.00
2023-04-26T03:37:11.421Z,78.40
2023-04-26T03:39:41.897Z,78.70
2023-04-26T03:42:11.714Z,79.10
2023-04-26T03:44:40.813Z,79.40
2023-04-26T03:47:09.258Z,79.70
2023-04-26T03:49:38.260Z,79.90
2023-04-26T03:52:06.662Z,80.00
2023-04-26T03:54:36.204Z,80.10
2023-04-26T03:57:06.120Z,80.30
2023-04-26T03:59:34.728Z,80.60
2023-04-26T04:02:03.741Z,81.20
2023-04-26T04:04:33.062Z,82.00
2023-04-26T04:07:02.217Z,82.90
2023-04-26T04:09:30.628Z,83.70
2023-04-26T04:11:59.046Z,84.70
2023-04-26T04:14:30.009Z,85.30
2023-04-26T04:16:59.565Z,85.90
2023-04-26T04:19:29.001Z,86.50
2023-04-26T04:21:57.558Z,87.40
2023-04-26T04:24:27.623Z,88.50
2023-04-26T04:26:56.198Z,89.80
2023-04-26T04:29:24.802Z,90.50
2023-04-26T04:31:54.646Z,91.50
2023-04-26T04:34:23.857Z,92.90
2023-04-26T04:36:52.809Z,94.50
2023-04-26T04:39:21.508Z,95.40
2023-04-26T04:41:50.132Z,95.90
2023-04-26T04:44:20.706Z,96.10
2023-04-26T04:46:49.128Z,96.00
2023-04-26T04:49:19.824Z,95.50
2023-04-26T04:51:49.361Z,94.70
2023-04-26T04:54:19.331Z,93.50
2023-04-26T04:56:49.279Z,91.90
2023-04-26T04:59:18.421Z,90.20
2023-04-26T05:01:48.922Z,87.20
2023-04-26T05:04:18.896Z,84.40
2023-04-26T05:06:47.409Z,81.10
2023-04-26T05:09:15.806Z,77.30
2023-04-26T05:11:44.252Z,74.20
2023-04-26T05:14:13.602Z,71.30
2023-04-26T05:16:42.171Z,68.70
2023-04-26T05:19:10.922Z,66.50
2023-04-26T05:21:40.954Z,64.30
2023-04-26T05:24:09.770Z,62.60
2023-04-26T05:26:38.497Z,60.70
2023-04-26T05:29:26.308Z,59.40
2023-04-26T05:32:13.306Z,58.70
2023-04-26T05:34:42.227Z,58.10
2023-04-26T05:37:17.571Z,56.70
2023-04-26T05:39:46.104Z,55.70
2023-04-26T05:42:16.387Z,54.60
2023-04-26T05:44:46.495Z,54.00
2023-04-26T05:47:15.706Z,53.40
2023-04-26T05:49:44.203Z,52.20
2023-04-26T05:52:13.000Z,51.60
2023-04-26T05:54:42.725Z,50.90
2023-04-26T05:57:11.257Z,51.10
2023-04-26T05:59:41.391Z,50.70
2023-04-26T06:02:10.280Z,49.60
2023-04-26T06:04:38.922Z,48.70
2023-04-26T06:07:14.472Z,48.30
2023-04-26T06:09:44.561Z,47.80
2023-04-26T06:12:13.118Z,46.40
2023-04-26T06:14:44.095Z,45.80
2023-04-26T06:17:17.423Z,45.10
2023-04-26T06:19:46.182Z,44.00
2023-04-26T06:22:14.545Z,42.70
2023-04-26T06:24:44.364Z,41.40
2023-04-26T06:27:12.850Z,40.50
2023-04-26T06:29:45.442Z,40.00
2023-04-26T06:32:14.019Z,39.50
2023-04-26T06:34:44.128Z,39.00
2023-04-26T06:37:13.073Z,37.90
2023-04-26T06:39:45.869Z,37.70
2023-04-26T06:42:14.787Z,37.30
2023-04-26T06:45:01.477Z,36.70
2023-04-26T06:47:30.185Z,35.30
2023-04-26T06:49:58.571Z,35.50
2023-04-26T06:52:27.566Z,33.90
2023-04-26T06:54:57.982Z,33.50
2023-04-26T06:57:26.814Z,32.90
2023-04-26T06:59:55.349Z,32.00
2023-04-26T07:02:24.714Z,31.40
2023-04-26T07:04:53.884Z,31.90
2023-04-26T07:07:22.817Z,30.90
2023-04-26T07:09:51.434Z,30.00
2023-04-26T07:12:21.180Z,29.80
2023-04-26T07:14:49.551Z,28.70
2023-04-26T07:17:17.965Z,28.60
2023-04-26T07:19:46.507Z,29.20
2023-04-26T07:22:14.967Z,29.70
2023-04-26T07:24:43.345Z,29.90
2023-04-26T07:27:12.066Z,30.20
2023-04-26T07:29:41.908Z,30.50
2023-04-26T07:32:10.373Z,30.60
2023-04-26T07:34:38.742Z,30.80
2023-04-26T07:37:07.230Z,30.90
2023-04-26T07:39:35.741Z,29.40
2023-04-26T07:42:04.319Z,28.80
2023-04-26T07:44:32.760Z,28.80
2023-04-26T07:47:02.522Z,28.40
2023-04-26T07:49:30.910Z,28.50
2023-04-26T07:52:02.322Z,28.70
2023-04-26T07:54:31.049Z,28.50
2023-04-26T07:56:59.424Z,28.30
2023-04-26T07:59:27.821Z,28.50
2023-04-26T08:01:56.213Z,28.50
2023-04-26T08:04:34.973Z,28.20
2023-04-26T08:07:03.824Z,27.90
2023-04-26T08:09:32.374Z,28.20
2023-04-26T08:12:01.483Z,27.70
2023-04-26T08:14:31.043Z,27.40
2023-04-26T08:16:59.580Z,27.10
2023-04-26T08:19:30.949Z,27.40
2023-04-26T08:22:00.799Z,27.00
2023-04-26T08:24:29.341Z,26.90
2023-04-26T08:26:58.637Z,27.00
2023-04-26T08:29:28.716Z,27.00
2023-04-26T08:31:57.447Z,27.30
2023-04-26T08:34:27.688Z,27.70
2023-04-26T08:36:56.108Z,27.90
2023-04-26T08:39:25.893Z,27.60
2023-04-26T08:41:56.324Z,27.30
2023-04-26T08:44:26.822Z,27.30
2023-04-26T08:47:02.849Z,26.20
2023-04-26T08:49:41.093Z,24.90
2023-04-26T08:52:12.432Z,25.40
2023-04-26T08:54:42.843Z,25.60
2023-04-26T08:57:11.627Z,25.50
2023-04-26T08:59:41.357Z,25.60
2023-04-26T09:02:12.448Z,25.60
2023-04-26T09:04:42.021Z,24.80
2023-04-26T09:07:14.413Z,24.90
2023-04-26T09:09:46.661Z,25.60
2023-04-26T09:12:15.851Z,26.40
2023-04-26T09:14:44.318Z,26.50
2023-04-26T09:17:27.203Z,26.30
2023-04-26T09:19:56.119Z,25.80
2023-04-26T09:22:32.502Z,26.60
2023-04-26T09:25:02.555Z,27.10
2023-04-26T09:27:35.779Z,27.40
2023-04-26T09:30:10.627Z,27.20
2023-04-26T09:32:51.202Z,26.60
2023-04-26T09:35:33.114Z,26.40
2023-04-26T09:38:09.013Z,26.50
2023-04-26T09:40:43.574Z,26.60
2023-04-26T09:43:13.297Z,26.90
2023-04-26T09:45:47.642Z,27.00
2023-04-26T09:48:18.997Z,27.40
2023-04-26T09:50:47.577Z,27.80
2023-04-26T09:53:29.915Z,28.10
2023-04-26T09:56:08.563Z,29.00
2023-04-26T09:58:38.764Z,30.00
2023-04-26T10:01:09.532Z,30.50
2023-04-26T10:03:38.706Z,29.80
2023-04-26T10:06:07.872Z,29.70
2023-04-26T10:08:37.394Z,29.80
2023-04-26T10:11:10.551Z,29.60
2023-04-26T10:13:39.208Z,28.30
2023-04-26T10:16:10.309Z,27.70
2023-04-26T10:18:39.108Z,26.70
2023-04-26T10:21:12.845Z,26.10
2023-04-26T10:23:42.638Z,25.90
2023-04-26T10:26:48.594Z,25.90
2023-04-26T10:29:17.180Z,27.00
2023-04-26T10:32:08.906Z,27.40
2023-04-26T10:34:38.244Z,27.00
2023-04-26T10:37:12.003Z,26.80
2023-04-26T10:39:42.314Z,26.20
2023-04-26T10:42:27.581Z,26.30
2023-04-26T10:44:57.247Z,27.00
2023-04-26T10:47:30.362Z,27.60
2023-04-26T10:50:06.199Z,27.30
2023-04-26T10:52:35.411Z,27.70
2023-04-26T10:55:05.354Z,27.40
2023-04-26T10:57:52.445Z,27.30
2023-04-26T11:00:33.175Z,27.50
2023-04-26T11:03:06.745Z,27.50
2023-04-26T11:05:54.711Z,27.00
2023-04-26T11:08:27.364Z,26.70
2023-04-26T11:11:06.392Z,26.60
2023-04-26T11:13:38.767Z,26.70
2023-04-26T11:16:08.564Z,27.10
2023-04-26T11:18:38.880Z,27.30
2023-04-26T11:21:08.314Z,27.30
2023-04-26T11:23:37.663Z,27.50
2023-04-26T11:26:08.657Z,27.70
2023-04-26T11:28:39.808Z,27.90
2023-04-26T11:31:09.515Z,28.10
2023-04-26T11:33:38.186Z,28.40
2023-04-26T11:36:07.224Z,28.70
2023-04-26T11:38:35.866Z,29.10
2023-04-26T11:41:05.456Z,29.60
2023-04-26T11:43:39.303Z,30.30
2023-04-26T11:46:10.137Z,31.10
2023-04-26T11:48:39.831Z,30.80
2023-04-26T11:51:10.556Z,30.00
2023-04-26T11:53:40.655Z,28.50
2023-04-26T11:56:17.277Z,27.80
2023-04-26T11:58:48.260Z,26.90
2023-04-26T12:01:23.777Z,27.50
2023-04-26T12:03:53.934Z,27.80
2023-04-26T12:06:30.540Z,27.80
2023-04-26T12:08:58.982Z,28.80
2023-04-26T12:11:28.340Z,28.20
2023-04-26T12:14:01.702Z,28.20
2023-04-26T12:16:30.460Z,28.30
2023-04-26T12:18:59.362Z,28.90
2023-04-26T12:21:30.323Z,28.70
2023-04-26T12:23:59.621Z,28.60
2023-04-26T12:26:45.838Z,27.40
2023-04-26T12:29:15.613Z,26.80
2023-04-26T12:31:44.427Z,26.20
2023-04-26T12:34:12.925Z,25.70
2023-04-26T12:36:44.490Z,25.80
2023-04-26T12:39:13.645Z,25.60
2023-04-26T12:41:42.137Z,25.70
2023-04-26T12:44:10.939Z,25.40
2023-04-26T12:46:40.928Z,25.40
2023-04-26T12:49:09.417Z,25.60
2023-04-26T12:51:37.796Z,25.70
2023-04-26T12:54:06.373Z,25.90
2023-04-26T12:56:38.607Z,25.90
2023-04-26T12:59:07.410Z,25.70
2023-04-26T13:01:36.267Z,25.40
2023-04-26T13:04:06.827Z,24.70
2023-04-26T13:06:36.362Z,23.90
2023-04-26T13:09:07.924Z,24.00
2023-04-26T13:11:36.402Z,24.10
2023-04-26T13:14:06.923Z,24.20
2023-04-26T13:16:35.559Z,24.60
2023-04-26T13:19:05.442Z,25.60
2023-04-26T13:21:34.107Z,25.60
2023-04-26T13:24:02.584Z,25.10
2023-04-26T13:26:30.948Z,25.40
2023-04-26T13:28:59.701Z,25.40
2023-04-26T13:31:28.539Z,25.50
2023-04-26T13:33:57.021Z,26.00
2023-04-26T13:36:27.998Z,26.00
2023-04-26T13:38:56.503Z,26.20
2023-04-26T13:41:24.982Z,26.50
2023-04-26T13:43:53.427Z,26.50
2023-04-26T13:46:22.466Z,26.30
2023-04-26T13:48:50.981Z,26.40
2023-04-26T13:51:19.472Z,26.20
2023-04-26T13:53:49.376Z,26.30
2023-04-26T13:56:17.950Z,26.40
2023-04-26T13:58:46.561Z,26.60
2023-04-26T14:01:15.157Z,27.40
2023-04-26T14:03:43.747Z,28.00
2023-04-26T14:06:13.319Z,27.80
2023-04-26T14:08:41.954Z,27.30
2023-04-26T14:11:13.196Z,26.50
2023-04-26T14:13:41.947Z,26.20
2023-04-26T14:16:11.114Z,26.10
2023-04-26T14:18:45.309Z,26.20
2023-04-26T14:21:13.784Z,26.60
2023-04-26T14:23:42.193Z,27.30
2023-04-26T14:26:12.012Z,27.70
2023-04-26T14:28:41.198Z,27.70
2023-04-26T14:31:09.690Z,27.70
2023-04-26T14:33:38.128Z,27.70
2023-04-26T14:36:07.104Z,27.90
2023-04-26T14:38:35.538Z,27.90
2023-04-26T14:41:03.966Z,27.60
2023-04-26T14:43:33.752Z,27.40
2023-04-26T14:46:03.712Z,27.30
2023-04-26T14:48:32.244Z,27.70
2023-04-26T14:51:00.802Z,27.90
2023-04-26T14:53:29.364Z,28.20
2023-04-26T14:55:57.955Z,28.30
2023-04-26T14:58:26.527Z,28.80
2023-04-26T15:00:56.350Z,28.90
2023-04-26T15:03:24.941Z,28.70
2023-04-26T15:05:53.579Z,28.70
2023-04-26T15:08:22.121Z,28.90
2023-04-26T15:10:51.340Z,28.50
2023-04-26T15:13:19.922Z,28.10
2023-04-26T15:15:48.460Z,28.40
2023-04-26T15:18:18.323Z,27.90
2023-04-26T15:20:46.702Z,28.30
2023-04-26T15:23:15.210Z,28.30
2023-04-26T15:25:43.783Z,28.40
2023-04-26T15:28:12.289Z,28.70
2023-04-26T15:30:40.840Z,28.90
2023-04-26T15:33:10.581Z,29.10
2023-04-26T15:35:40.412Z,28.80
2023-04-26T15:38:08.797Z,28.70
2023-04-26T15:40:38.208Z,28.40
2023-04-26T15:43:06.850Z,28.40
2023-04-26T15:45:36.973Z,28.70
2023-04-26T15:48:06.084Z,28.90
2023-04-26T15:50:34.698Z,29.10
2023-04-26T15:53:04.632Z,29.20
2023-04-26T15:55:34.010Z,29.20
2023-04-26T15:58:02.498Z,29.10
2023-04-26T16:00:32.064Z,29.20
2023-04-26T16:03:00.752Z,29.20
2023-04-26T16:05:29.310Z,29.20
2023-04-26T16:07:57.746Z,29.30
2023-04-26T16:10:28.203Z,29.30
2023-04-26T16:12:56.637Z,29.50
2023-04-26T16:15:25.142Z,29.70
2023-04-26T16:17:54.372Z,29.80
2023-04-26T16:20:22.899Z,29.70
2023-04-26T16:22:52.146Z,29.70
2023-04-26T16:25:20.705Z,29.70
2023-04-26T16:27:50.450Z,29.70
2023-04-26T16:30:19.217Z,29.60
2023-04-26T16:32:47.655Z,29.70
2023-04-26T16:35:16.256Z,29.90
2023-04-26T16:37:44.937Z,29.80
2023-04-26T16:40:14.657Z,29.80
2023-04-26T16:42:44.666Z,30.00
2023-04-26T16:45:16.462Z,30.00
2023-04-26T16:47:45.421Z,30.00
2023-04-26T16:50:14.225Z,30.00
2023-04-26T16:52:42.553Z,30.00
2023-04-26T16:55:11.256Z,30.10
2023-04-26T16:57:39.647Z,30.70
2023-04-26T17:00:11.700Z,30.20
2023-04-26T17:02:42.161Z,30.20
2023-04-26T17:05:11.320Z,30.40
2023-04-26T17:07:39.883Z,30.50
2023-04-26T17:10:09.048Z,30.40
2023-04-26T17:12:40.138Z,30.50
2023-04-26T17:15:09.769Z,30.50
2023-04-26T17:17:38.221Z,30.70
2023-04-26T17:20:10.821Z,30.80
2023-04-26T17:22:40.762Z,30.80
2023-04-26T17:25:10.237Z,31.10
2023-04-26T17:27:38.690Z,31.10
2023-04-26T17:30:08.373Z,31.20
2023-04-26T17:32:36.780Z,31.10
2023-04-26T17:35:06.683Z,31.20
2023-04-26T17:37:36.398Z,31.20
2023-04-26T17:40:07.867Z,31.30
2023-04-26T17:42:36.621Z,31.50
2023-04-26T17:45:06.317Z,31.50
2023-04-26T17:47:34.820Z,32.60
2023-04-26T17:50:03.644Z,32.70
2023-04-26T17:52:32.651Z,32.90
2023-04-26T17:55:02.481Z,33.10
2023-04-26T17:57:31.041Z,33.20
2023-04-26T17:59:59.487Z,33.40
2023-04-26T18:02:28.142Z,33.60
2023-04-26T18:04:56.760Z,33.80
2023-04-26T18:07:25.293Z,34.10
2023-04-26T18:09:53.827Z,34.20
2023-04-26T18:12:23.504Z,34.40
2023-04-26T18:14:52.379Z,34.60
2023-04-26T18:17:20.916Z,34.80
2023-04-26T18:19:49.298Z,35.10
2023-04-26T18:22:17.760Z,35.10
2023-04-26T18:24:46.949Z,35.20
2023-04-26T18:27:15.555Z,35.30
2023-04-26T18:29:45.417Z,35.40
2023-04-26T18:32:13.799Z,36.00
2023-04-26T18:34:42.278Z,35.40
2023-04-26T18:37:10.772Z,35.60
2023-04-26T18:39:39.238Z,35.60
2023-04-26T18:42:07.810Z,35.70
2023-04-26T18:44:36.312Z,35.70
2023-04-26T18:47:06.258Z,35.90
2023-04-26T18:49:34.757Z,35.90
2023-04-26T18:52:03.711Z,35.90
2023-04-26T18:54:33.204Z,35.90
2023-04-26T18:57:03.304Z,36.00
2023-04-26T18:59:32.238Z,36.70
2023-04-26T19:02:01.778Z,36.20
2023-04-26T19:04:31.782Z,36.40
2023-04-26T19:07:01.123Z,36.40
2023-04-26T19:09:33.389Z,36.40
2023-04-26T19:12:08.562Z,36.40
2023-04-26T19:14:36.900Z,36.50
2023-04-26T19:17:05.275Z,36.60
2023-04-26T19:19:35.032Z,36.50
2023-04-26T19:22:03.588Z,36.50
2023-04-26T19:24:31.996Z,36.50
2023-04-26T19:27:00.849Z,36.60
2023-04-26T19:29:29.212Z,36.50
2023-04-26T19:31:59.625Z,37.20
2023-04-26T19:34:28.181Z,36.60
2023-04-26T19:36:57.887Z,36.70
2023-04-26T19:39:26.542Z,36.80
2023-04-26T19:41:54.919Z,36.80
2023-04-26T19:44:23.313Z,36.80
2023-04-26T19:46:51.841Z,36.90
2023-04-26T19:49:20.324Z,37.10
2023-04-26T19:51:48.695Z,37.20
2023-04-26T19:54:19.945Z,37.40
2023-04-26T19:56:48.385Z,37.30
2023-04-26T19:59:16.821Z,37.30
2023-04-26T20:01:45.290Z,37.40
2023-04-26T20:04:13.829Z,37.70
2023-04-26T20:06:42.427Z,37.60
2023-04-26T20:09:10.992Z,37.70
2023-04-26T20:11:40.850Z,37.70
2023-04-26T20:14:09.244Z,37.70
2023-04-26T20:16:37.666Z,37.80
2023-04-26T20:19:06.300Z,37.80
2023-04-26T20:21:34.912Z,37.90
2023-04-26T20:24:03.443Z,38.20
2023-04-26T20:26:31.783Z,38.10
2023-04-26T20:29:01.474Z,38.10
2023-04-26T20:31:30.050Z,38.20
2023-04-26T20:34:00.060Z,38.20
2023-04-26T20:36:29.179Z,38.40
2023-04-26T20:38:57.917Z,38.70
2023-04-26T20:41:26.786Z,38.60
2023-04-26T20:43:55.186Z,39.00
2023-04-26T20:46:24.966Z,39.00
2023-04-26T20:48:53.430Z,39.20
2023-04-26T20:51:21.838Z,39.20
2023-04-26T20:53:50.312Z,39.50
2023-04-26T20:56:18.707Z,39.60
2023-04-26T20:58:47.070Z,39.60
2023-04-26T21:01:15.578Z,39.50
2023-04-26T21:03:45.612Z,39.50
2023-04-26T21:06:14.224Z,39.60
2023-04-26T21:08:43.106Z,39.90
2023-04-26T21:11:11.550Z,40.10
2023-04-26T21:13:39.965Z,40.40
2023-04-26T21:16:08.653Z,40.20
2023-04-26T21:18:37.143Z,40.30
2023-04-26T21:21:06.851Z,40.40
2023-04-26T21:23:35.504Z,40.50
2023-04-26T21:26:03.824Z,40.80
2023-04-26T21:28:32.367Z,40.90
2023-04-26T21:31:05.371Z,40.90
2023-04-26T21:33:34.601Z,40.80
2023-04-26T21:36:03.072Z,40.90
2023-04-26T21:38:32.691Z,41.40
2023-04-26T21:41:01.157Z,41.40
2023-04-26T21:43:29.480Z,41.30
2023-04-26T21:45:58.638Z,41.70
2023-04-26T21:48:27.850Z,41.90
2023-04-26T21:50:56.354Z,42.00
2023-04-26T21:53:24.812Z,42.00
2023-04-26T21:55:55.423Z,42.10
2023-04-26T21:58:24.380Z,42.50
2023-04-26T22:00:52.959Z,42.30
2023-04-26T22:03:22.077Z,42.40
2023-04-26T22:05:50.613Z,42.50
2023-04-26T22:08:18.979Z,42.60
2023-04-26T22:10:47.445Z,42.50
2023-04-26T22:13:17.140Z,42.70
2023-04-26T22:15:45.703Z,42.60
2023-04-26T22:18:14.152Z,42.70
2023-04-26T22:20:42.747Z,42.90
2023-04-26T22:23:11.349Z,43.00
2023-04-26T22:25:39.804Z,42.90
2023-04-26T22:28:08.327Z,42.90
2023-04-26T22:30:38.667Z,42.90
2023-04-26T22:33:07.334Z,43.00
2023-04-26T22:35:36.585Z,43.00
2023-04-26T22:38:05.043Z,43.00
2023-04-26T22:40:33.474Z,43.00
2023-04-26T22:43:01.947Z,43.10
2023-04-26T22:45:30.446Z,43.80
2023-04-26T22:48:00.231Z,43.30
2023-04-26T22:50:28.675Z,43.40
2023-04-26T22:52:57.065Z,43.50
2023-04-26T22:55:25.571Z,43.50
2023-04-26T22:57:53.943Z,43.60
2023-04-26T23:00:24.818Z,44.00
2023-04-26T23:02:54.326Z,43.80
2023-04-26T23:05:24.152Z,43.80
2023-04-26T23:07:52.729Z,43.70
2023-04-26T23:10:21.320Z,43.80
2023-04-26T23:12:51.258Z,43.90
2023-04-26T23:15:19.764Z,44.00
2023-04-26T23:17:48.623Z,44.10
2023-04-26T23:20:17.751Z,44.20
2023-04-26T23:22:47.442Z,44.40
2023-04-26T23:25:16.150Z,44.50
2023-04-26T23:27:44.423Z,44.60
2023-04-26T23:30:14.245Z,44.60
2023-04-26T23:32:42.757Z,44.70
2023-04-26T23:35:11.389Z,44.80
2023-04-26T23:37:39.809Z,44.80
2023-04-26T23:40:10.644Z,44.90
2023-04-26T23:42:38.988Z,44.90
2023-04-26T23:45:08.031Z,45.00
2023-04-26T23:47:36.516Z,45.00
2023-04-26T23:50:05.094Z,45.20
2023-04-26T23:52:33.464Z,45.20
2023-04-26T23:55:01.842Z,45.30
2023-04-26T23:57:32.277Z,45.20
